ראשי / חיפושים אחרונים

חיפושים אחרונים

לוחית
סוג רכב
דגם
שנה
תאריך חיפוש
שעת חיפוש
1019673 יונדאי צ'כיה I30 2010 31/08/2026 19:14:59
1164366 שברולט ארהב" TRAILBLAZER 2008 31/08/2026 19:14:58
81773703 פולקסווגן פולי - 2025 31/08/2026 19:14:58
1525285 קיה סלובקיה SPORTAGE 2017 31/08/2026 19:14:57
5150150 מזדה יפן LANTIS-323 2003 31/08/2026 19:14:57
9195460 ניסאן ספרד PATHFINDER 2005 31/08/2026 19:14:53
13310401 קיה סלובקיה SPORTAGE 2017 31/08/2026 19:14:52
8160780 פיאט טורקיה FIAT TIPO 2017 31/08/2026 19:14:51
1207015 גמס אנגליה - 1996 31/08/2026 19:14:50
5440612 סיאט סלובקיה MII 2013 31/08/2026 19:14:49
5150150 מזדה יפן LANTIS-323 2003 31/08/2026 19:14:49
77817702 סובארו יפן FORESTER 2022 31/08/2026 19:14:48
82414103 טויוטה יפן COROLLA CROSS 2024 31/08/2026 19:14:48
24961703 יונדאי קוריאה הדרומית ELANTRA HEV 2023 31/08/2026 19:14:43
74803803 טויוטה יפן TOYOTA BZ4X 2024 31/08/2026 19:14:38
64707201 סיטרואן ספרד BERLINGO 2019 31/08/2026 19:14:34
49156001 סיאט ספרד LEON 2018 31/08/2026 19:14:33
41052604 קיה קוריאה הדרומית CARNIVAL 2025 31/08/2026 19:14:28
5338354 פולקסווגן גרמניה GOLF 2015 31/08/2026 19:14:27
1207015 גמס אנגליה - 1996 31/08/2026 19:14:24
5440612 סיאט סלובקיה MII 2013 31/08/2026 19:14:24
9272213 פיאט איטליה - 2012 31/08/2026 19:14:24
76483701 רנו צרפת - 2019 31/08/2026 19:14:23
31676203 וולבו שבדיה - 2024 31/08/2026 19:14:18
26509101 טויוטה ארהב" HIGHLANDER HV 2018 31/08/2026 19:14:14
7395859 טויוטה יפן COROLLA 2005 31/08/2026 19:14:13
21518402 ימהה צרפת - 2020 31/08/2026 19:14:08
4390274 טויוטה טורקיה AURIS 2011 31/08/2026 19:14:03
55128801 מרצדס גרמניה GLA200 2019 31/08/2026 19:14:02
3409655 שברולט קוריאה הדרומית CAPTIVA 2017 31/08/2026 19:14:02
40599601 קיה סלובקיה SPORTAGE 2018 31/08/2026 19:14:01
1229837 טויוטה טורקיה COROLLA 2016 31/08/2026 19:13:58
3925079 ניסאן הודו MICRA 2012 31/08/2026 19:13:56
5150150 מזדה יפן LANTIS-323 2003 31/08/2026 19:13:54
3368231 יונדאי קוריאה הדרומית I25 2014 31/08/2026 19:13:54
8699928 פורשה גרמניה CAYENNES 2003 31/08/2026 19:13:52
2999561 טויוטה יפן PRIUS HYBRID 2007 31/08/2026 19:13:49
74035504 טסלה סין MODEL Y 2026 31/08/2026 19:13:47
91663601 מרצדס גרמניה C220 BLUETEC 2014 31/08/2026 19:13:42
7544412 פיג'ו צרפת 208 2013 31/08/2026 19:13:39
8878187 סיטרואן ספרד BERLINGO 2017 31/08/2026 19:13:36
38813402 פיגו איטליה - 2021 31/08/2026 19:13:23
1065287 הונדה מקסיקו HR-V 2017 31/08/2026 19:13:19
1354575 פיג'ו צ'כיה 107 2011 31/08/2026 19:13:11
1640463 טויוטה תאילנד HILUX VIGO 2008 31/08/2026 19:13:10
18583804 ב מ וו גרמניה M3 COMPETITION 2025 31/08/2026 19:13:09
4297611 יונדאי צ'כיה I30 2013 31/08/2026 19:12:58
77817702 סובארו יפן FORESTER 2022 31/08/2026 19:12:55
8698738 קיה סלובקיה CEED 2016 31/08/2026 19:12:53
46193004 ב מ וו ארהב" XM 50E 2025 31/08/2026 19:12:50
14494004 טסלה גרמניה MODEL Y 2024 31/08/2026 19:12:49
41457601 קיה קוריאה הדרומית PICANTO 2018 31/08/2026 19:12:48
3383134 יונדאי טורקיה I10 2015 31/08/2026 19:12:45
4156311 יונדאי טורקיה I20 2013 31/08/2026 19:12:42
4249526 טויוטה טורקיה COROLLA SDN HSD 2024 31/08/2026 19:12:40
61063203 גילי סין GEOMETRY C 2023 31/08/2026 19:12:39
3758373 סוזוקי יפן GRAND VITARA 2010 31/08/2026 19:12:33
1607074 סיטרואן צרפת JUMPY HDI 2010 31/08/2026 19:12:24
2863069 מזדה יפן MAZDA 3 2009 31/08/2026 19:12:23
1041758 סקניה-הולנד - 2018 31/08/2026 19:12:20
9040952 פולקסווגן גרמנ - 2013 31/08/2026 19:12:17
29274203 דאף אנגליה - 2023 31/08/2026 19:12:16
45302101 טויוטה יפן LAND CRUISER 2018 31/08/2026 19:12:15
1460056 רנו צרפת SCENIC 2004 31/08/2026 19:12:12
41457601 קיה קוריאה הדרומית PICANTO 2018 31/08/2026 19:12:12
4340173 סיטרואן צרפת JUMPY HDI 2010 31/08/2026 19:12:11
59403101 מזדה יפן MAZDA 3 2019 31/08/2026 19:12:11
13536502 סקודה צ'כיה SCALA 2020 31/08/2026 19:12:09
39419602 יונדאי קוריאה הדרומית SONATA HYBRID 2021 31/08/2026 19:12:06
3764881 ניו הולנד פיאט - 2019 31/08/2026 19:12:05
16400801 מיצובישי יפן OUTLANDER 2017 31/08/2026 19:12:03
1302468 סוזוקי יפן GRAND VITARA 2009 31/08/2026 19:12:01
1010060 טויוטה צרפת YARIS 2007 31/08/2026 19:11:58
89372201 טויוטה טורקיה C-HR HYBRID 2019 31/08/2026 19:11:51
45302101 טויוטה יפן LAND CRUISER 2018 31/08/2026 19:11:49
9352427 פורד גרמניה משא מסחרי אחוד V 899 1998 31/08/2026 19:11:48
1170279 אלפא רומיאו איטליה ALFA GIULIETTA 2011 31/08/2026 19:11:47
55996303 טויוטה יפן TOYOTA BZ4X 2023 31/08/2026 19:11:45
6301785 קיה קוריאה הדרומית RIO 2017 31/08/2026 19:11:44
41719202 לקסוס יפן LX 570 2020 31/08/2026 19:11:43
28693103 סקניה-הולנד - 2024 31/08/2026 19:11:43
3288832 איסוזו יפן - 2015 31/08/2026 19:11:36
89139502 סקודה צ'כיה OCTAVIA 2022 31/08/2026 19:11:34
1914037 טויוטה בריטניה AVENSIS 2016 31/08/2026 19:11:30
9086060 מרצדס בנץ גרמנ - 1993 31/08/2026 19:11:28
72681202 הונדה איטליה - 2022 31/08/2026 19:11:25
78439202 מיצובישי תאילנד L200 2022 31/08/2026 19:11:23
4274379 ניסאן הודו MICRA 2013 31/08/2026 19:11:18
24725903 קרייזלר מכסיקו - 2023 31/08/2026 19:11:12
9049837 ניסאן בריטניה JUKE 2016 31/08/2026 19:11:06
31065804 יונדאי קוריאה הדרומית ELANTRA HEV 2025 31/08/2026 19:11:06
8458586 טויוטה תאילנד HILUX 2019 31/08/2026 19:11:04
5096166 מיצובישי יפן PAJERO 2009 31/08/2026 19:11:04
3679738 סיאט ספרד IBIZA 2016 31/08/2026 19:11:03
2740070 טויוטה יפן COROLLA 2009 31/08/2026 19:11:03
3775876 יונדאי צ'כיה I30 2011 31/08/2026 19:11:02
3383134 יונדאי טורקיה I10 2015 31/08/2026 19:10:59
2867151 טויוטה יפן HILUX 2004 31/08/2026 19:10:58
2525062 פולקסווגן גרמניה PASSAT 2007 31/08/2026 19:10:57
48696301 סיטרואן ספרד BERLINGO 2019 31/08/2026 19:10:52
6305762 טויוטה יפן LAND CRUISER 2007 31/08/2026 19:10:52
77105303 סיאט ספרד ARONA 2024 31/08/2026 19:10:47
11025404 סיאט ספרד ARONA 2024 31/08/2026 19:10:46
59589201 מזדה תאילנד MAZDA 2 2019 31/08/2026 19:10:46
46657401 טויוטה טורקיה COROLLA HSD SDN 2019 31/08/2026 19:10:45
90616101 שברולט ארהב" - 2017 31/08/2026 19:10:45
4725373 פיג'ו צרפת 308 2010 31/08/2026 19:10:43
25588603 מרצדס גרמניה EQE 350 2023 31/08/2026 19:10:42
7427452 וולבו בלגיה S60 T4 2013 31/08/2026 19:10:40
8734860 פורד ארהב" EXPLORER 2006 31/08/2026 19:10:39
4971534 סקודה צ'כיה NEW YETI 2015 31/08/2026 19:10:35
5232158 מזדה יפן MAZDA3 SPORT 2005 31/08/2026 19:10:33
6625173 פולקסווגן גרמניה NEW TRANSPORTER 2011 31/08/2026 19:10:32
11025404 סיאט ספרד ARONA 2024 31/08/2026 19:10:26
51558904 יונדאי קוריאה הדרומית KONA HYBRID 2026 31/08/2026 19:10:26
2572938 סקודה צ'כיה SPACEBACK 2016 31/08/2026 19:10:26
46845901 טויוטה טורקיה COROLLA HSD SDN 2019 31/08/2026 19:10:24
6422866 מיצובישי יפן PAJERO 2010 31/08/2026 19:10:23
30760904 פורד ארהב" - 2025 31/08/2026 19:10:23
8842111 מזדה יפן MAZDA 3 2014 31/08/2026 19:10:22
4913610 סיאט ספרד CORDOBA 2001 31/08/2026 19:10:22
5094571 מזדה יפן MAZDA 3 2011 31/08/2026 19:10:20
90616101 שברולט ארהב" - 2017 31/08/2026 19:10:18
8563854 פורד תורכיה CUSTOM 330L 2015 31/08/2026 19:10:13
70307703 ניסאן בריטניה JUKE HYBRID 2024 31/08/2026 19:10:09
8383234 פולריס - 2016 31/08/2026 19:10:07
5317467 דייהטסו יפן SIRION 2009 31/08/2026 19:10:04
5232158 מזדה יפן MAZDA3 SPORT 2005 31/08/2026 19:10:04
4221337 יונדאי טורקיה I10 2015 31/08/2026 19:10:03
6310316 ב מ וו גרמניה 523I 2010 31/08/2026 19:10:00
28159503 ב מ וו אוסטריה Z4 SDRIVE 20I 2022 31/08/2026 19:09:54
28159503 ב מ וו אוסטריה Z4 SDRIVE 20I 2022 31/08/2026 19:09:52
7058764 דייהטסו יפן .SIRION 2008 31/08/2026 19:09:52
39990304 זונטס סין - 2026 31/08/2026 19:09:49
69198201 קיה קוריאה הדרומית STONIC 2019 31/08/2026 19:09:48
81255104 ג'אקו סין JAECOO8 PHEV 2026 31/08/2026 19:09:45
8412423 יונדאי קוריאה הדרומית ACCENT 2001 31/08/2026 19:09:43
6118865 מזדה יפן MAZDA3 2008 31/08/2026 19:09:35
3310433 רנו טורקיה FLUENCE 2016 31/08/2026 19:09:35
14851204 מזדה יפן MAZDA3 2024 31/08/2026 19:09:33
8262239 מיצובישי תאילנד ATTRAGE 2016 31/08/2026 19:09:27
33802801 פורד ספרד KUGA 2018 31/08/2026 19:09:24
28159503 ב מ וו אוסטריה Z4 SDRIVE 20I 2022 31/08/2026 19:09:23
1074250 טויוטה יפן YARIS VERSO 2003 31/08/2026 19:09:23
3744854 סיאט ספרד IBIZA 2015 31/08/2026 19:09:22
45076 פולקסווגן גרמנ - 1961 31/08/2026 19:09:16
3764552 קיה קוריאה הדרומית PICANTO 2013 31/08/2026 19:09:14
1096032 יונדאי צ'כיה I30 2014 31/08/2026 19:09:12
2936911 יונדאי קוריאה הדרומית I35 2013 31/08/2026 19:09:12
47976902 קואנג יאנג טיו - 2022 31/08/2026 19:09:10
5232158 מזדה יפן MAZDA3 SPORT 2005 31/08/2026 19:09:10
78679502 יונדאי קוריאה הדרומית ELANTRA HEV 2022 31/08/2026 19:09:10
7041085 קיה סלובקיה SPORTAGE 2017 31/08/2026 19:09:10
4830771 מזדה יפן MAZDA 3 2011 31/08/2026 19:09:07
24261602 פורד ארהב" LINCOLN 2020 31/08/2026 19:08:57
59589201 מזדה תאילנד MAZDA 2 2019 31/08/2026 19:08:57
57248901 רנו טורקיה GRAND COUPE 2018 31/08/2026 19:08:56
6398581 יונדאי קוריאה הדרומית I25 2017 31/08/2026 19:08:56
65348203 סיטרואן צרפת C5 AIRCROSS 2024 31/08/2026 19:08:51
1420330 סובארו יפן FORESTER 2015 31/08/2026 19:08:51
7625176 פולקסווגן ספרד POLO 2012 31/08/2026 19:08:50
4724263 פורד ספרד FOCUS 2008 31/08/2026 19:08:49
57248901 רנו טורקיה GRAND COUPE 2018 31/08/2026 19:08:47
49323804 פיאט ספרד DOBLO 2026 31/08/2026 19:08:46
65879704 אומודה סין OMODA 7 PHEV 2026 31/08/2026 19:08:46
94018301 פולקסווגן גרמניה CARAVELLE 2020 31/08/2026 19:08:46
5232158 מזדה יפן MAZDA3 SPORT 2005 31/08/2026 19:08:45
31342802 מ.ג סין EHS PHEV 2022 31/08/2026 19:08:43
8730150 רנו ספרד MEGANE 2003 31/08/2026 19:08:43
3542276 מיצובישי יפן OUTLANDER 2011 31/08/2026 19:08:41
4740020 מרצדס גרמניה מרצדס אלגנס 1997 31/08/2026 19:08:41
5232158 מזדה יפן MAZDA3 SPORT 2005 31/08/2026 19:08:38
7625176 פולקסווגן ספרד POLO 2012 31/08/2026 19:08:36
3939579 ניסאן ספרד - 2012 31/08/2026 19:08:33
29760401 ב מ וו אוסטריה 540I 2017 31/08/2026 19:08:32
4425173 סיטרואן צרפת JUMPY HDI 2010 31/08/2026 19:08:31
9699579 מרצדס בנץ גרמנ - 2016 31/08/2026 19:08:30
38437903 טויוטה צרפת YARIS CROSS HSD 2023 31/08/2026 19:08:29
64193304 ג'אקו סין JAECOO8 PHEV 2026 31/08/2026 19:08:28
1066937 טויוטה טורקיה COROLLA 2016 31/08/2026 19:08:26
79670302 טויוטה אוסטריה GR SUPRA 2022 31/08/2026 19:08:25
43576501 סיטרואן צרפת JUMPY 2018 31/08/2026 19:08:23
5041153 סקודה צ'כיה OCTAVIA 2014 31/08/2026 19:08:22
9006732 שברולט קוריאה הדרומית CRUZE 2015 31/08/2026 19:08:21
54583603 קיה קוריאה הדרומית NIRO EV 2023 31/08/2026 19:08:20
34154803 מרצדס בנץ גרמנ - 2023 31/08/2026 19:08:19
2825170 טויוטה יפן COROLLA 2009 31/08/2026 19:08:16
65092403 סיטרואן סלובקיה C3 2024 31/08/2026 19:08:13
8223608 ב מ וו גרמניה - 1996 31/08/2026 19:08:11
8980068 מזדה יפן MAZDA 3 2010 31/08/2026 19:08:09
87865601 יונדאי צ'כיה TUCSON 2020 31/08/2026 19:08:08
72367802 וולבו בלגיה XC40 T5RECHARG 2022 31/08/2026 19:08:07
31919902 סקודה צ'כיה OCTAVIA 2020 31/08/2026 19:08:06
53366703 יונדאי קוריאה הדרומית GENESIS GV80 2024 31/08/2026 19:08:06
5232158 מזדה יפן MAZDA3 SPORT 2005 31/08/2026 19:08:03
5728355 מרצדס בנץ גרמנ - 2017 31/08/2026 19:08:01
9005659 פורד תורכיה TOURNEO CONNECT 2005 31/08/2026 19:08:00
32318403 גולדן דרגון סי - 2023 31/08/2026 19:07:58
1929830 מזדה יפן MAZDA 3 2016 31/08/2026 19:07:54
57248901 רנו טורקיה GRAND COUPE 2018 31/08/2026 19:07:54
וואטסאפ